Terminal Aerodrome Forecast
Issued by NWS Knoxville/Tri Cities, TN

Home | Current Version | Previous Version | Text Only | Print | Product List | Glossary On
Versions: 1 2 3 4 5 6 7 8 9 10 11 12 13 14 15 16 17 18 19 20 21 22 23 24 25 26 27 28 29 30 31 32 33 34 35 36 37 38 39 40 41
000
FTUS44 KMRX 060528
TAFTYS
TAF
KTYS 060528Z 0606/0706 01010KT P6SM OVC022
     FM061000 02008KT P6SM BKN015
     FM061300 02005KT P6SM SCT020
     FM061700 30006KT P6SM SKC
     FM070000 00000KT P6SM SKC=

USA.gov is the U.S. government's official web portal to all federal, state and local government web resources and services.